sensor_id;sensor_type;location;lat;lon;timestamp;P1;durP1;ratioP1;P2;durP2;ratioP2
70787;SDS011;68385;47.752;19.100;2023-07-29T00:00:28;1.30;;;0.30;;
70787;SDS011;68385;47.752;19.100;2023-07-29T00:03:30;1.20;;;0.70;;
70787;SDS011;68385;47.752;19.100;2023-07-29T00:06:33;1.55;;;0.30;;
70787;SDS011;68385;47.752;19.100;2023-07-29T00:09:36;1.10;;;0.30;;
70787;SDS011;68385;47.752;19.100;2023-07-29T00:12:39;1.10;;;0.30;;
70787;SDS011;68385;47.752;19.100;2023-07-29T00:15:41;1.25;;;0.37;;
70787;SDS011;68385;47.752;19.100;2023-07-29T00:18:43;1.33;;;0.50;;
70787;SDS011;68385;47.752;19.100;2023-07-29T00:21:45;3.25;;;0.20;;
70787;SDS011;68385;47.752;19.100;2023-07-29T00:24:53;0.98;;;0.22;;
70787;SDS011;68385;47.752;19.100;2023-07-29T00:28:01;1.52;;;0.40;;
70787;SDS011;68385;47.752;19.100;2023-07-29T00:31:03;1.20;;;0.57;;
70787;SDS011;68385;47.752;19.100;2023-07-29T00:34:05;0.90;;;0.20;;
70787;SDS011;68385;47.752;19.100;2023-07-29T00:37:07;1.10;;;0.40;;
70787;SDS011;68385;47.752;19.100;2023-07-29T00:40:14;1.10;;;0.35;;
70787;SDS011;68385;47.752;19.100;2023-07-29T00:43:22;1.48;;;0.50;;
70787;SDS011;68385;47.752;19.100;2023-07-29T00:46:24;1.10;;;0.30;;
70787;SDS011;68385;47.752;19.100;2023-07-29T00:49:26;1.37;;;0.40;;
70787;SDS011;68385;47.752;19.100;2023-07-29T00:52:28;1.10;;;0.30;;
70787;SDS011;68385;47.752;19.100;2023-07-29T00:55:30;1.00;;;0.30;;
70787;SDS011;68385;47.752;19.100;2023-07-29T00:58:32;0.98;;;0.20;;
70787;SDS011;68385;47.752;19.100;2023-07-29T01:01:34;1.20;;;0.30;;
70787;SDS011;68385;47.752;19.100;2023-07-29T01:04:37;1.20;;;0.30;;
70787;SDS011;68385;47.752;19.100;2023-07-29T01:07:52;1.70;;;0.40;;
70787;SDS011;68385;47.752;19.100;2023-07-29T01:11:01;1.75;;;0.50;;
70787;SDS011;68385;47.752;19.100;2023-07-29T01:14:17;0.90;;;0.20;;
70787;SDS011;68385;47.752;19.100;2023-07-29T01:17:30;1.30;;;0.45;;
70787;SDS011;68385;47.752;19.100;2023-07-29T01:20:37;1.00;;;0.20;;
70787;SDS011;68385;47.752;19.100;2023-07-29T01:23:40;1.05;;;0.30;;
70787;SDS011;68385;47.752;19.100;2023-07-29T01:26:42;0.95;;;0.25;;
70787;SDS011;68385;47.752;19.100;2023-07-29T01:29:44;1.35;;;0.28;;
70787;SDS011;68385;47.752;19.100;2023-07-29T01:32:54;0.90;;;0.20;;
70787;SDS011;68385;47.752;19.100;2023-07-29T01:36:29;0.90;;;0.20;;
70787;SDS011;68385;47.752;19.100;2023-07-29T01:39:24;0.88;;;0.20;;
70787;SDS011;68385;47.752;19.100;2023-07-29T01:42:29;1.45;;;0.43;;
70787;SDS011;68385;47.752;19.100;2023-07-29T01:45:33;0.90;;;0.20;;
70787;SDS011;68385;47.752;19.100;2023-07-29T01:48:39;2.55;;;0.35;;
70787;SDS011;68385;47.752;19.100;2023-07-29T01:51:41;1.33;;;0.60;;
70787;SDS011;68385;47.752;19.100;2023-07-29T01:54:44;0.90;;;0.20;;
70787;SDS011;68385;47.752;19.100;2023-07-29T01:57:45;1.25;;;0.43;;
70787;SDS011;68385;47.752;19.100;2023-07-29T02:00:47;1.00;;;0.30;;
70787;SDS011;68385;47.752;19.100;2023-07-29T02:03:49;1.00;;;0.30;;
70787;SDS011;68385;47.752;19.100;2023-07-29T02:06:56;0.90;;;0.20;;
70787;SDS011;68385;47.752;19.100;2023-07-29T02:09:58;2.55;;;2.05;;
70787;SDS011;68385;47.752;19.100;2023-07-29T02:13:00;1.73;;;0.62;;
70787;SDS011;68385;47.752;19.100;2023-07-29T02:16:02;1.12;;;0.50;;
70787;SDS011;68385;47.752;19.100;2023-07-29T02:19:05;0.80;;;0.20;;
70787;SDS011;68385;47.752;19.100;2023-07-29T02:22:07;2.30;;;0.60;;
70787;SDS011;68385;47.752;19.100;2023-07-29T02:25:08;0.70;;;0.20;;
70787;SDS011;68385;47.752;19.100;2023-07-29T02:28:11;0.80;;;0.20;;
70787;SDS011;68385;47.752;19.100;2023-07-29T02:31:20;0.90;;;0.25;;
70787;SDS011;68385;47.752;19.100;2023-07-29T02:34:23;0.80;;;0.20;;
70787;SDS011;68385;47.752;19.100;2023-07-29T02:37:25;0.90;;;0.30;;
70787;SDS011;68385;47.752;19.100;2023-07-29T02:40:27;0.90;;;0.20;;
70787;SDS011;68385;47.752;19.100;2023-07-29T02:43:30;0.85;;;0.20;;
70787;SDS011;68385;47.752;19.100;2023-07-29T02:46:32;0.88;;;0.22;;
70787;SDS011;68385;47.752;19.100;2023-07-29T02:49:35;1.00;;;0.20;;
70787;SDS011;68385;47.752;19.100;2023-07-29T02:52:38;0.80;;;0.20;;
70787;SDS011;68385;47.752;19.100;2023-07-29T02:55:40;1.20;;;0.28;;
70787;SDS011;68385;47.752;19.100;2023-07-29T02:58:42;1.00;;;0.25;;
70787;SDS011;68385;47.752;19.100;2023-07-29T03:01:44;0.80;;;0.20;;
70787;SDS011;68385;47.752;19.100;2023-07-29T03:04:47;1.15;;;0.30;;
70787;SDS011;68385;47.752;19.100;2023-07-29T03:07:49;1.00;;;0.30;;
70787;SDS011;68385;47.752;19.100;2023-07-29T03:10:51;0.80;;;0.20;;
70787;SDS011;68385;47.752;19.100;2023-07-29T03:13:53;0.90;;;0.20;;
70787;SDS011;68385;47.752;19.100;2023-07-29T03:16:55;0.82;;;0.22;;
70787;SDS011;68385;47.752;19.100;2023-07-29T03:19:57;1.00;;;0.30;;
70787;SDS011;68385;47.752;19.100;2023-07-29T03:22:59;1.00;;;0.30;;
70787;SDS011;68385;47.752;19.100;2023-07-29T03:26:01;1.00;;;0.30;;
70787;SDS011;68385;47.752;19.100;2023-07-29T03:29:05;1.00;;;0.30;;
70787;SDS011;68385;47.752;19.100;2023-07-29T03:32:07;0.88;;;0.20;;
70787;SDS011;68385;47.752;19.100;2023-07-29T03:35:09;1.20;;;0.50;;
70787;SDS011;68385;47.752;19.100;2023-07-29T03:38:11;0.90;;;0.20;;
70787;SDS011;68385;47.752;19.100;2023-07-29T03:41:13;0.90;;;0.20;;
70787;SDS011;68385;47.752;19.100;2023-07-29T03:44:15;1.17;;;0.40;;
70787;SDS011;68385;47.752;19.100;2023-07-29T03:47:17;1.37;;;0.60;;
70787;SDS011;68385;47.752;19.100;2023-07-29T03:50:19;1.00;;;0.30;;
70787;SDS011;68385;47.752;19.100;2023-07-29T03:53:21;2.53;;;0.70;;
70787;SDS011;68385;47.752;19.100;2023-07-29T03:56:22;1.17;;;0.30;;
70787;SDS011;68385;47.752;19.100;2023-07-29T03:59:24;1.00;;;0.30;;
70787;SDS011;68385;47.752;19.100;2023-07-29T04:02:26;1.20;;;0.35;;
70787;SDS011;68385;47.752;19.100;2023-07-29T04:05:28;1.12;;;0.32;;
70787;SDS011;68385;47.752;19.100;2023-07-29T04:08:30;0.90;;;0.20;;
70787;SDS011;68385;47.752;19.100;2023-07-29T04:11:32;1.48;;;0.50;;
70787;SDS011;68385;47.752;19.100;2023-07-29T04:14:34;0.93;;;0.20;;
70787;SDS011;68385;47.752;19.100;2023-07-29T04:17:35;1.00;;;0.30;;
70787;SDS011;68385;47.752;19.100;2023-07-29T04:20:38;1.20;;;0.40;;
70787;SDS011;68385;47.752;19.100;2023-07-29T04:23:40;1.00;;;0.30;;
70787;SDS011;68385;47.752;19.100;2023-07-29T04:26:41;1.23;;;0.30;;
70787;SDS011;68385;47.752;19.100;2023-07-29T04:29:43;1.30;;;0.30;;
70787;SDS011;68385;47.752;19.100;2023-07-29T04:32:45;1.00;;;0.30;;
70787;SDS011;68385;47.752;19.100;2023-07-29T04:35:50;0.90;;;0.20;;
70787;SDS011;68385;47.752;19.100;2023-07-29T04:38:51;1.20;;;0.40;;
70787;SDS011;68385;47.752;19.100;2023-07-29T04:41:53;1.10;;;0.35;;
70787;SDS011;68385;47.752;19.100;2023-07-29T04:44:55;1.20;;;0.35;;
70787;SDS011;68385;47.752;19.100;2023-07-29T04:47:58;1.27;;;0.43;;
70787;SDS011;68385;47.752;19.100;2023-07-29T04:51:00;1.37;;;0.45;;
70787;SDS011;68385;47.752;19.100;2023-07-29T04:54:02;1.37;;;0.37;;
70787;SDS011;68385;47.752;19.100;2023-07-29T04:57:04;1.20;;;0.30;;
70787;SDS011;68385;47.752;19.100;2023-07-29T05:00:06;1.00;;;0.30;;
70787;SDS011;68385;47.752;19.100;2023-07-29T05:03:08;1.25;;;0.30;;
70787;SDS011;68385;47.752;19.100;2023-07-29T05:06:10;1.00;;;0.30;;
70787;SDS011;68385;47.752;19.100;2023-07-29T05:09:13;1.60;;;0.40;;
70787;SDS011;68385;47.752;19.100;2023-07-29T05:12:19;1.10;;;0.30;;
70787;SDS011;68385;47.752;19.100;2023-07-29T05:15:21;1.40;;;0.40;;
70787;SDS011;68385;47.752;19.100;2023-07-29T05:18:23;1.80;;;0.60;;
70787;SDS011;68385;47.752;19.100;2023-07-29T05:21:25;1.50;;;0.52;;
70787;SDS011;68385;47.752;19.100;2023-07-29T05:24:27;1.40;;;0.40;;
70787;SDS011;68385;47.752;19.100;2023-07-29T05:27:29;1.45;;;0.30;;
70787;SDS011;68385;47.752;19.100;2023-07-29T05:30:32;1.92;;;0.68;;
70787;SDS011;68385;47.752;19.100;2023-07-29T05:33:35;1.55;;;0.52;;
70787;SDS011;68385;47.752;19.100;2023-07-29T05:36:38;1.50;;;0.40;;
70787;SDS011;68385;47.752;19.100;2023-07-29T05:39:40;1.50;;;0.40;;
70787;SDS011;68385;47.752;19.100;2023-07-29T05:42:42;1.17;;;0.30;;
70787;SDS011;68385;47.752;19.100;2023-07-29T05:45:46;1.10;;;0.30;;
70787;SDS011;68385;47.752;19.100;2023-07-29T05:48:48;1.30;;;0.47;;
70787;SDS011;68385;47.752;19.100;2023-07-29T05:51:50;1.20;;;0.30;;
70787;SDS011;68385;47.752;19.100;2023-07-29T05:54:54;1.30;;;0.50;;
70787;SDS011;68385;47.752;19.100;2023-07-29T05:57:56;1.58;;;0.60;;
70787;SDS011;68385;47.752;19.100;2023-07-29T06:00:59;1.35;;;0.55;;
70787;SDS011;68385;47.752;19.100;2023-07-29T06:04:01;1.40;;;0.50;;
70787;SDS011;68385;47.752;19.100;2023-07-29T06:07:03;2.03;;;0.77;;
70787;SDS011;68385;47.752;19.100;2023-07-29T06:10:06;1.40;;;0.40;;
70787;SDS011;68385;47.752;19.100;2023-07-29T06:13:09;2.08;;;0.95;;
70787;SDS011;68385;47.752;19.100;2023-07-29T06:16:11;2.95;;;1.40;;
70787;SDS011;68385;47.752;19.100;2023-07-29T06:19:13;1.65;;;0.57;;
70787;SDS011;68385;47.752;19.100;2023-07-29T06:22:15;1.25;;;0.40;;
70787;SDS011;68385;47.752;19.100;2023-07-29T06:25:17;1.87;;;0.50;;
70787;SDS011;68385;47.752;19.100;2023-07-29T06:28:19;1.95;;;0.50;;
70787;SDS011;68385;47.752;19.100;2023-07-29T06:31:21;1.80;;;0.60;;
70787;SDS011;68385;47.752;19.100;2023-07-29T06:34:23;1.40;;;0.50;;
70787;SDS011;68385;47.752;19.100;2023-07-29T06:37:27;1.25;;;0.40;;
70787;SDS011;68385;47.752;19.100;2023-07-29T06:40:29;1.33;;;0.40;;
70787;SDS011;68385;47.752;19.100;2023-07-29T06:43:31;1.62;;;0.50;;
70787;SDS011;68385;47.752;19.100;2023-07-29T06:46:32;1.40;;;0.43;;
70787;SDS011;68385;47.752;19.100;2023-07-29T06:49:35;1.50;;;0.50;;
70787;SDS011;68385;47.752;19.100;2023-07-29T06:52:36;1.70;;;0.50;;
70787;SDS011;68385;47.752;19.100;2023-07-29T06:55:39;2.17;;;0.70;;
70787;SDS011;68385;47.752;19.100;2023-07-29T06:58:41;1.40;;;0.50;;
70787;SDS011;68385;47.752;19.100;2023-07-29T07:01:43;1.50;;;0.50;;
70787;SDS011;68385;47.752;19.100;2023-07-29T07:04:45;1.62;;;0.62;;
70787;SDS011;68385;47.752;19.100;2023-07-29T07:07:47;1.85;;;0.60;;
70787;SDS011;68385;47.752;19.100;2023-07-29T07:10:49;1.93;;;0.57;;
70787;SDS011;68385;47.752;19.100;2023-07-29T07:13:51;1.98;;;0.93;;
70787;SDS011;68385;47.752;19.100;2023-07-29T07:16:53;1.40;;;0.50;;
70787;SDS011;68385;47.752;19.100;2023-07-29T07:19:55;1.67;;;0.47;;
70787;SDS011;68385;47.752;19.100;2023-07-29T07:22:56;1.70;;;0.80;;
70787;SDS011;68385;47.752;19.100;2023-07-29T07:25:58;2.07;;;0.70;;
70787;SDS011;68385;47.752;19.100;2023-07-29T07:29:00;1.48;;;0.57;;
70787;SDS011;68385;47.752;19.100;2023-07-29T07:32:02;1.40;;;0.50;;
70787;SDS011;68385;47.752;19.100;2023-07-29T07:35:04;1.70;;;0.60;;
70787;SDS011;68385;47.752;19.100;2023-07-29T07:38:06;1.40;;;0.40;;
70787;SDS011;68385;47.752;19.100;2023-07-29T07:41:11;1.60;;;0.70;;
70787;SDS011;68385;47.752;19.100;2023-07-29T07:44:13;2.20;;;1.27;;
70787;SDS011;68385;47.752;19.100;2023-07-29T07:47:16;1.83;;;0.80;;
70787;SDS011;68385;47.752;19.100;2023-07-29T07:50:18;1.40;;;0.50;;
70787;SDS011;68385;47.752;19.100;2023-07-29T07:53:21;2.45;;;0.88;;
70787;SDS011;68385;47.752;19.100;2023-07-29T07:56:23;1.70;;;0.60;;
70787;SDS011;68385;47.752;19.100;2023-07-29T07:59:25;1.70;;;0.50;;
70787;SDS011;68385;47.752;19.100;2023-07-29T08:02:26;2.25;;;1.00;;
70787;SDS011;68385;47.752;19.100;2023-07-29T08:05:29;1.30;;;0.40;;
70787;SDS011;68385;47.752;19.100;2023-07-29T08:08:30;1.52;;;0.60;;
70787;SDS011;68385;47.752;19.100;2023-07-29T08:11:32;1.27;;;0.40;;
70787;SDS011;68385;47.752;19.100;2023-07-29T08:14:34;1.80;;;0.65;;
70787;SDS011;68385;47.752;19.100;2023-07-29T08:17:36;2.00;;;0.85;;
70787;SDS011;68385;47.752;19.100;2023-07-29T08:20:38;2.78;;;0.90;;
70787;SDS011;68385;47.752;19.100;2023-07-29T08:23:40;1.98;;;0.65;;
70787;SDS011;68385;47.752;19.100;2023-07-29T08:26:42;1.57;;;0.50;;
70787;SDS011;68385;47.752;19.100;2023-07-29T08:29:44;2.25;;;0.85;;
70787;SDS011;68385;47.752;19.100;2023-07-29T08:32:45;2.10;;;0.95;;
70787;SDS011;68385;47.752;19.100;2023-07-29T08:35:47;2.10;;;0.90;;
70787;SDS011;68385;47.752;19.100;2023-07-29T08:38:49;1.60;;;0.70;;
70787;SDS011;68385;47.752;19.100;2023-07-29T08:42:26;1.60;;;0.60;;
70787;SDS011;68385;47.752;19.100;2023-07-29T08:45:20;4.12;;;0.80;;
70787;SDS011;68385;47.752;19.100;2023-07-29T08:48:23;3.90;;;1.10;;
70787;SDS011;68385;47.752;19.100;2023-07-29T08:51:34;2.67;;;1.40;;
70787;SDS011;68385;47.752;19.100;2023-07-29T08:54:37;1.87;;;0.88;;
70787;SDS011;68385;47.752;19.100;2023-07-29T08:57:39;2.00;;;0.80;;
70787;SDS011;68385;47.752;19.100;2023-07-29T09:00:41;1.60;;;0.70;;
70787;SDS011;68385;47.752;19.100;2023-07-29T09:03:43;1.60;;;0.60;;
70787;SDS011;68385;47.752;19.100;2023-07-29T09:06:45;1.50;;;0.60;;
70787;SDS011;68385;47.752;19.100;2023-07-29T09:09:49;1.95;;;0.88;;
70787;SDS011;68385;47.752;19.100;2023-07-29T09:12:51;1.80;;;0.83;;
70787;SDS011;68385;47.752;19.100;2023-07-29T09:15:54;1.80;;;0.93;;
70787;SDS011;68385;47.752;19.100;2023-07-29T09:19:03;1.98;;;0.80;;
70787;SDS011;68385;47.752;19.100;2023-07-29T09:22:05;1.60;;;0.60;;
70787;SDS011;68385;47.752;19.100;2023-07-29T09:25:07;1.75;;;0.82;;
70787;SDS011;68385;47.752;19.100;2023-07-29T09:28:10;1.90;;;0.90;;
70787;SDS011;68385;47.752;19.100;2023-07-29T09:31:20;2.85;;;0.93;;
70787;SDS011;68385;47.752;19.100;2023-07-29T09:34:23;1.60;;;0.73;;
70787;SDS011;68385;47.752;19.100;2023-07-29T09:37:25;1.83;;;0.70;;
70787;SDS011;68385;47.752;19.100;2023-07-29T09:40:27;1.60;;;0.70;;
70787;SDS011;68385;47.752;19.100;2023-07-29T09:43:29;2.10;;;0.80;;
70787;SDS011;68385;47.752;19.100;2023-07-29T09:46:36;1.73;;;0.70;;
70787;SDS011;68385;47.752;19.100;2023-07-29T09:49:40;2.00;;;1.00;;
70787;SDS011;68385;47.752;19.100;2023-07-29T09:52:43;2.00;;;1.10;;
70787;SDS011;68385;47.752;19.100;2023-07-29T09:55:48;2.00;;;1.02;;
70787;SDS011;68385;47.752;19.100;2023-07-29T09:58:52;1.97;;;1.10;;
70787;SDS011;68385;47.752;19.100;2023-07-29T10:01:54;2.45;;;0.80;;
70787;SDS011;68385;47.752;19.100;2023-07-29T10:04:56;3.75;;;1.17;;
70787;SDS011;68385;47.752;19.100;2023-07-29T10:07:59;1.98;;;1.08;;
70787;SDS011;68385;47.752;19.100;2023-07-29T10:11:01;3.22;;;0.98;;
70787;SDS011;68385;47.752;19.100;2023-07-29T10:14:03;1.80;;;0.90;;
70787;SDS011;68385;47.752;19.100;2023-07-29T10:17:09;3.12;;;1.05;;
70787;SDS011;68385;47.752;19.100;2023-07-29T10:20:11;1.90;;;1.00;;
70787;SDS011;68385;47.752;19.100;2023-07-29T10:23:13;5.15;;;1.62;;
70787;SDS011;68385;47.752;19.100;2023-07-29T10:26:16;1.95;;;1.05;;
70787;SDS011;68385;47.752;19.100;2023-07-29T10:29:21;1.70;;;0.80;;
70787;SDS011;68385;47.752;19.100;2023-07-29T10:32:25;2.10;;;1.00;;
70787;SDS011;68385;47.752;19.100;2023-07-29T10:35:30;1.83;;;1.02;;
70787;SDS011;68385;47.752;19.100;2023-07-29T10:38:34;5.85;;;1.45;;
70787;SDS011;68385;47.752;19.100;2023-07-29T10:45:16;1.90;;;1.00;;
70787;SDS011;68385;47.752;19.100;2023-07-29T10:51:34;1.80;;;0.90;;
70787;SDS011;68385;47.752;19.100;2023-07-29T10:54:44;1.80;;;0.85;;
70787;SDS011;68385;47.752;19.100;2023-07-29T10:57:49;2.37;;;1.30;;
70787;SDS011;68385;47.752;19.100;2023-07-29T11:00:51;1.80;;;0.90;;
70787;SDS011;68385;47.752;19.100;2023-07-29T11:04:45;1.62;;;0.75;;
70787;SDS011;68385;47.752;19.100;2023-07-29T11:07:32;1.90;;;0.98;;
70787;SDS011;68385;47.752;19.100;2023-07-29T11:14:01;1.70;;;0.80;;
70787;SDS011;68385;47.752;19.100;2023-07-29T11:17:04;1.80;;;0.90;;
70787;SDS011;68385;47.752;19.100;2023-07-29T11:20:06;1.70;;;0.80;;
70787;SDS011;68385;47.752;19.100;2023-07-29T11:23:10;1.90;;;0.95;;
70787;SDS011;68385;47.752;19.100;2023-07-29T11:26:12;1.85;;;0.98;;
70787;SDS011;68385;47.752;19.100;2023-07-29T11:29:15;2.08;;;1.10;;
70787;SDS011;68385;47.752;19.100;2023-07-29T11:32:17;2.40;;;1.17;;
70787;SDS011;68385;47.752;19.100;2023-07-29T11:35:19;1.70;;;0.80;;
70787;SDS011;68385;47.752;19.100;2023-07-29T11:38:21;1.90;;;1.00;;
70787;SDS011;68385;47.752;19.100;2023-07-29T11:41:23;1.80;;;0.80;;
70787;SDS011;68385;47.752;19.100;2023-07-29T11:44:26;1.92;;;1.10;;
70787;SDS011;68385;47.752;19.100;2023-07-29T11:47:29;1.80;;;0.90;;
70787;SDS011;68385;47.752;19.100;2023-07-29T11:50:31;1.77;;;0.90;;
70787;SDS011;68385;47.752;19.100;2023-07-29T11:53:33;1.80;;;1.00;;
70787;SDS011;68385;47.752;19.100;2023-07-29T11:56:35;1.80;;;1.00;;
70787;SDS011;68385;47.752;19.100;2023-07-29T11:59:37;2.03;;;1.10;;
70787;SDS011;68385;47.752;19.100;2023-07-29T12:02:40;2.07;;;1.00;;
70787;SDS011;68385;47.752;19.100;2023-07-29T12:05:46;1.90;;;1.10;;
70787;SDS011;68385;47.752;19.100;2023-07-29T12:08:49;2.30;;;1.30;;
70787;SDS011;68385;47.752;19.100;2023-07-29T12:11:54;2.12;;;1.10;;
70787;SDS011;68385;47.752;19.100;2023-07-29T12:14:56;1.92;;;1.00;;
70787;SDS011;68385;47.752;19.100;2023-07-29T12:17:59;1.90;;;1.00;;
70787;SDS011;68385;47.752;19.100;2023-07-29T12:21:01;1.80;;;0.90;;
70787;SDS011;68385;47.752;19.100;2023-07-29T12:24:04;1.60;;;0.70;;
70787;SDS011;68385;47.752;19.100;2023-07-29T12:27:13;2.05;;;0.77;;
70787;SDS011;68385;47.752;19.100;2023-07-29T12:30:19;2.00;;;1.20;;
70787;SDS011;68385;47.752;19.100;2023-07-29T12:33:37;1.70;;;0.80;;
70787;SDS011;68385;47.752;19.100;2023-07-29T12:36:44;1.80;;;0.90;;
70787;SDS011;68385;47.752;19.100;2023-07-29T12:39:49;2.00;;;1.20;;
70787;SDS011;68385;47.752;19.100;2023-07-29T12:42:51;1.80;;;0.82;;
70787;SDS011;68385;47.752;19.100;2023-07-29T12:45:54;4.55;;;1.10;;
70787;SDS011;68385;47.752;19.100;2023-07-29T12:48:56;2.00;;;1.10;;
70787;SDS011;68385;47.752;19.100;2023-07-29T12:51:58;1.48;;;0.60;;
70787;SDS011;68385;47.752;19.100;2023-07-29T12:55:00;2.53;;;1.10;;
70787;SDS011;68385;47.752;19.100;2023-07-29T12:58:02;1.70;;;0.90;;
70787;SDS011;68385;47.752;19.100;2023-07-29T13:01:05;1.90;;;1.00;;
70787;SDS011;68385;47.752;19.100;2023-07-29T13:04:07;1.97;;;1.10;;
70787;SDS011;68385;47.752;19.100;2023-07-29T13:07:09;1.90;;;1.05;;
70787;SDS011;68385;47.752;19.100;2023-07-29T13:10:11;2.37;;;1.25;;
70787;SDS011;68385;47.752;19.100;2023-07-29T13:13:13;2.00;;;1.15;;
70787;SDS011;68385;47.752;19.100;2023-07-29T13:16:15;1.95;;;1.12;;
70787;SDS011;68385;47.752;19.100;2023-07-29T13:19:18;1.80;;;1.00;;
70787;SDS011;68385;47.752;19.100;2023-07-29T13:22:20;2.00;;;1.02;;
70787;SDS011;68385;47.752;19.100;2023-07-29T13:25:22;2.25;;;1.33;;
70787;SDS011;68385;47.752;19.100;2023-07-29T13:28:24;2.00;;;1.17;;
70787;SDS011;68385;47.752;19.100;2023-07-29T13:31:26;2.53;;;1.20;;
70787;SDS011;68385;47.752;19.100;2023-07-29T13:34:28;1.90;;;1.00;;
70787;SDS011;68385;47.752;19.100;2023-07-29T13:37:30;2.00;;;1.20;;
70787;SDS011;68385;47.752;19.100;2023-07-29T13:40:32;1.80;;;1.00;;
70787;SDS011;68385;47.752;19.100;2023-07-29T13:43:35;2.05;;;1.15;;
70787;SDS011;68385;47.752;19.100;2023-07-29T13:46:37;2.03;;;1.20;;
70787;SDS011;68385;47.752;19.100;2023-07-29T13:49:39;1.67;;;0.80;;
70787;SDS011;68385;47.752;19.100;2023-07-29T13:52:41;1.83;;;1.00;;
70787;SDS011;68385;47.752;19.100;2023-07-29T13:55:43;1.90;;;1.10;;
70787;SDS011;68385;47.752;19.100;2023-07-29T13:58:45;1.80;;;0.93;;
70787;SDS011;68385;47.752;19.100;2023-07-29T14:01:46;2.55;;;1.00;;
70787;SDS011;68385;47.752;19.100;2023-07-29T14:04:48;1.60;;;0.80;;
70787;SDS011;68385;47.752;19.100;2023-07-29T14:07:50;1.70;;;0.82;;
70787;SDS011;68385;47.752;19.100;2023-07-29T14:10:52;1.70;;;0.80;;
70787;SDS011;68385;47.752;19.100;2023-07-29T14:13:54;1.90;;;1.00;;
70787;SDS011;68385;47.752;19.100;2023-07-29T14:16:56;1.90;;;1.10;;
70787;SDS011;68385;47.752;19.100;2023-07-29T14:19:58;2.00;;;0.90;;
70787;SDS011;68385;47.752;19.100;2023-07-29T14:23:00;1.80;;;1.00;;
70787;SDS011;68385;47.752;19.100;2023-07-29T14:26:02;2.00;;;1.20;;
70787;SDS011;68385;47.752;19.100;2023-07-29T14:29:04;1.90;;;0.95;;
70787;SDS011;68385;47.752;19.100;2023-07-29T14:32:06;1.70;;;0.80;;
70787;SDS011;68385;47.752;19.100;2023-07-29T14:35:08;2.53;;;1.13;;
70787;SDS011;68385;47.752;19.100;2023-07-29T14:38:10;1.70;;;0.82;;
70787;SDS011;68385;47.752;19.100;2023-07-29T14:41:12;2.08;;;1.05;;
70787;SDS011;68385;47.752;19.100;2023-07-29T14:44:14;1.62;;;0.80;;
70787;SDS011;68385;47.752;19.100;2023-07-29T14:47:16;2.35;;;1.05;;
70787;SDS011;68385;47.752;19.100;2023-07-29T14:50:18;2.13;;;1.20;;
70787;SDS011;68385;47.752;19.100;2023-07-29T14:53:20;2.42;;;1.00;;
70787;SDS011;68385;47.752;19.100;2023-07-29T14:56:22;1.80;;;0.90;;
70787;SDS011;68385;47.752;19.100;2023-07-29T14:59:24;1.83;;;0.90;;
70787;SDS011;68385;47.752;19.100;2023-07-29T15:02:26;2.10;;;1.20;;
70787;SDS011;68385;47.752;19.100;2023-07-29T15:05:28;2.00;;;1.10;;
70787;SDS011;68385;47.752;19.100;2023-07-29T15:08:30;1.77;;;0.90;;
70787;SDS011;68385;47.752;19.100;2023-07-29T15:11:32;1.87;;;0.90;;
70787;SDS011;68385;47.752;19.100;2023-07-29T15:14:34;2.10;;;1.15;;
70787;SDS011;68385;47.752;19.100;2023-07-29T15:17:37;1.83;;;0.90;;
70787;SDS011;68385;47.752;19.100;2023-07-29T15:20:39;3.77;;;1.13;;
70787;SDS011;68385;47.752;19.100;2023-07-29T15:23:41;1.65;;;0.80;;
70787;SDS011;68385;47.752;19.100;2023-07-29T15:26:43;3.55;;;1.65;;
70787;SDS011;68385;47.752;19.100;2023-07-29T15:29:45;1.95;;;0.98;;
70787;SDS011;68385;47.752;19.100;2023-07-29T15:32:47;1.90;;;0.90;;
70787;SDS011;68385;47.752;19.100;2023-07-29T15:35:49;1.87;;;0.80;;
70787;SDS011;68385;47.752;19.100;2023-07-29T15:38:51;2.90;;;1.23;;
70787;SDS011;68385;47.752;19.100;2023-07-29T15:41:53;1.90;;;1.00;;
70787;SDS011;68385;47.752;19.100;2023-07-29T15:44:55;1.55;;;0.65;;
70787;SDS011;68385;47.752;19.100;2023-07-29T15:47:57;1.73;;;0.77;;
70787;SDS011;68385;47.752;19.100;2023-07-29T15:50:59;1.50;;;0.63;;
70787;SDS011;68385;47.752;19.100;2023-07-29T15:54:01;1.70;;;0.57;;
70787;SDS011;68385;47.752;19.100;2023-07-29T15:57:03;1.50;;;0.60;;
70787;SDS011;68385;47.752;19.100;2023-07-29T16:00:05;1.50;;;0.60;;
70787;SDS011;68385;47.752;19.100;2023-07-29T16:03:08;2.00;;;0.88;;
70787;SDS011;68385;47.752;19.100;2023-07-29T16:06:10;1.87;;;0.70;;
70787;SDS011;68385;47.752;19.100;2023-07-29T16:09:12;2.05;;;0.88;;
70787;SDS011;68385;47.752;19.100;2023-07-29T16:12:14;2.10;;;1.05;;
70787;SDS011;68385;47.752;19.100;2023-07-29T16:15:15;1.85;;;0.85;;
70787;SDS011;68385;47.752;19.100;2023-07-29T16:18:17;2.40;;;0.93;;
70787;SDS011;68385;47.752;19.100;2023-07-29T16:21:19;2.50;;;0.90;;
70787;SDS011;68385;47.752;19.100;2023-07-29T16:24:21;1.52;;;0.60;;
70787;SDS011;68385;47.752;19.100;2023-07-29T16:27:23;2.00;;;0.77;;
70787;SDS011;68385;47.752;19.100;2023-07-29T16:30:25;1.70;;;0.77;;
70787;SDS011;68385;47.752;19.100;2023-07-29T16:33:27;1.80;;;0.80;;
70787;SDS011;68385;47.752;19.100;2023-07-29T16:36:29;1.50;;;0.53;;
70787;SDS011;68385;47.752;19.100;2023-07-29T16:39:30;1.40;;;0.50;;
70787;SDS011;68385;47.752;19.100;2023-07-29T16:42:32;1.60;;;0.70;;
70787;SDS011;68385;47.752;19.100;2023-07-29T16:45:34;1.50;;;0.55;;
70787;SDS011;68385;47.752;19.100;2023-07-29T16:48:36;1.70;;;0.65;;
70787;SDS011;68385;47.752;19.100;2023-07-29T16:51:38;22.43;;;0.80;;
70787;SDS011;68385;47.752;19.100;2023-07-29T16:54:40;1.65;;;0.80;;
70787;SDS011;68385;47.752;19.100;2023-07-29T16:57:42;2.30;;;0.73;;
70787;SDS011;68385;47.752;19.100;2023-07-29T17:00:44;1.40;;;0.57;;
70787;SDS011;68385;47.752;19.100;2023-07-29T17:03:45;1.70;;;0.70;;
70787;SDS011;68385;47.752;19.100;2023-07-29T17:06:47;1.40;;;0.40;;
70787;SDS011;68385;47.752;19.100;2023-07-29T17:09:51;1.60;;;0.57;;
70787;SDS011;68385;47.752;19.100;2023-07-29T17:12:54;1.50;;;0.60;;
70787;SDS011;68385;47.752;19.100;2023-07-29T17:15:56;1.60;;;0.60;;
70787;SDS011;68385;47.752;19.100;2023-07-29T17:18:58;2.65;;;0.80;;
70787;SDS011;68385;47.752;19.100;2023-07-29T17:22:00;1.80;;;0.80;;
70787;SDS011;68385;47.752;19.100;2023-07-29T17:25:01;1.65;;;0.68;;
70787;SDS011;68385;47.752;19.100;2023-07-29T17:28:03;1.55;;;0.55;;
70787;SDS011;68385;47.752;19.100;2023-07-29T17:31:06;1.45;;;0.50;;
70787;SDS011;68385;47.752;19.100;2023-07-29T17:34:08;2.60;;;0.80;;
70787;SDS011;68385;47.752;19.100;2023-07-29T17:37:11;1.67;;;0.60;;
70787;SDS011;68385;47.752;19.100;2023-07-29T17:40:13;1.95;;;0.73;;
70787;SDS011;68385;47.752;19.100;2023-07-29T17:43:15;1.55;;;0.55;;
70787;SDS011;68385;47.752;19.100;2023-07-29T17:46:17;2.95;;;0.93;;
70787;SDS011;68385;47.752;19.100;2023-07-29T17:49:19;1.75;;;0.70;;
70787;SDS011;68385;47.752;19.100;2023-07-29T17:52:21;2.10;;;1.00;;
70787;SDS011;68385;47.752;19.100;2023-07-29T17:55:23;6.07;;;1.17;;
70787;SDS011;68385;47.752;19.100;2023-07-29T17:58:25;4.93;;;1.77;;
70787;SDS011;68385;47.752;19.100;2023-07-29T18:01:27;2.92;;;1.00;;
70787;SDS011;68385;47.752;19.100;2023-07-29T18:04:29;3.78;;;0.93;;
70787;SDS011;68385;47.752;19.100;2023-07-29T18:07:31;5.67;;;1.03;;
70787;SDS011;68385;47.752;19.100;2023-07-29T18:10:33;3.65;;;1.60;;
70787;SDS011;68385;47.752;19.100;2023-07-29T18:13:35;1.80;;;0.70;;